Fredericksburg, Missouri
Current Conditions -  °F | °C
As of 10:53 AM on Saturday 25 Oct 2014 (Local Time) from KJEF Reporting Station
Clear Clear  
Wind Chill: 69°   Ceiling: Unl
Heat Index: 69°   Visibility: 9mi
Dew Point: 61°   Wind: 6mph
Humidity: 75%   Direction: 340°NNW
Pressure: 30.07"   Gusts: NA
Location:  38.5959°N, 91.6636°W
Report Text: KJEF 251553Z 34005KT 9SM CLR 21/16 A3007 RMK AO2 SLP170 T02060161
Loading
Personal Weather Stations






























Interactive Weather Map
Tropical Storm Tracking
New forecast layout! Learn more

10-Day Weather Forecast

Advertisements
Track Severe Weather on mobile